sensor_id;sensor_type;location;lat;lon;timestamp;pressure;altitude;pressure_sealevel;temperature;humidity
58092;BME280;43896;48.178;11.578;2023-05-29T00:00:28;95823.72;;;15.92;51.55
58092;BME280;43896;48.178;11.578;2023-05-29T00:02:54;95811.72;;;15.96;50.95
58092;BME280;43896;48.178;11.578;2023-05-29T00:05:19;95788.94;;;15.59;51.77
58092;BME280;43896;48.178;11.578;2023-05-29T00:07:44;95828.50;;;16.03;51.17
58092;BME280;43896;48.178;11.578;2023-05-29T00:10:10;95816.88;;;16.04;51.23
58092;BME280;43896;48.178;11.578;2023-05-29T00:12:36;95825.53;;;16.13;51.14
58092;BME280;43896;48.178;11.578;2023-05-29T00:15:02;95823.81;;;16.05;50.54
58092;BME280;43896;48.178;11.578;2023-05-29T00:17:30;95829.84;;;15.92;52.12
58092;BME280;43896;48.178;11.578;2023-05-29T00:19:58;95784.56;;;15.72;51.65
58092;BME280;43896;48.178;11.578;2023-05-29T00:22:23;95820.66;;;15.95;51.40
58092;BME280;43896;48.178;11.578;2023-05-29T00:24:49;95834.03;;;16.08;51.18
58092;BME280;43896;48.178;11.578;2023-05-29T00:27:14;95829.47;;;15.96;51.32
58092;BME280;43896;48.178;11.578;2023-05-29T00:29:39;95769.19;;;15.61;51.52
58092;BME280;43896;48.178;11.578;2023-05-29T00:32:06;95765.31;;;15.64;51.59
58092;BME280;43896;48.178;11.578;2023-05-29T00:34:31;95763.47;;;15.57;51.62
58092;BME280;43896;48.178;11.578;2023-05-29T00:36:57;95808.75;;;15.84;52.00
58092;BME280;43896;48.178;11.578;2023-05-29T00:39:22;95785.59;;;15.50;52.90
58092;BME280;43896;48.178;11.578;2023-05-29T00:41:48;95768.88;;;15.28;53.15
58092;BME280;43896;48.178;11.578;2023-05-29T00:44:20;95832.28;;;14.93;54.88
58092;BME280;43896;48.178;11.578;2023-05-29T00:46:51;95815.91;;;15.04;54.36
58092;BME280;43896;48.178;11.578;2023-05-29T00:49:19;95767.03;;;15.07;53.56
58092;BME280;43896;48.178;11.578;2023-05-29T00:51:45;95805.94;;;15.43;53.28
58092;BME280;43896;48.178;11.578;2023-05-29T00:54:13;95830.78;;;15.63;52.69
58092;BME280;43896;48.178;11.578;2023-05-29T00:56:40;95799.16;;;15.40;52.28
58092;BME280;43896;48.178;11.578;2023-05-29T00:59:09;95804.66;;;15.38;53.18
58092;BME280;43896;48.178;11.578;2023-05-29T01:01:35;95794.22;;;15.15;53.97
58092;BME280;43896;48.178;11.578;2023-05-29T01:04:03;95804.28;;;15.42;53.76
58092;BME280;43896;48.178;11.578;2023-05-29T01:06:32;95840.06;;;15.16;54.47
58092;BME280;43896;48.178;11.578;2023-05-29T01:08:57;95829.53;;;14.26;56.82
58092;BME280;43896;48.178;11.578;2023-05-29T01:14:08;95827.16;;;14.91;55.32
58092;BME280;43896;48.178;11.578;2023-05-29T01:16:53;95823.75;;;15.12;54.34
58092;BME280;43896;48.178;11.578;2023-05-29T01:19:39;95832.03;;;15.24;54.71
58092;BME280;43896;48.178;11.578;2023-05-29T01:25:40;95829.00;;;15.27;54.31
58092;BME280;43896;48.178;11.578;2023-05-29T01:28:09;95813.06;;;15.06;54.85
58092;BME280;43896;48.178;11.578;2023-05-29T01:30:36;95780.31;;;14.92;55.41
58092;BME280;43896;48.178;11.578;2023-05-29T01:33:03;95776.69;;;14.93;54.85
58092;BME280;43896;48.178;11.578;2023-05-29T01:35:29;95797.34;;;15.04;55.24
58092;BME280;43896;48.178;11.578;2023-05-29T01:37:54;95778.50;;;14.92;55.14
58092;BME280;43896;48.178;11.578;2023-05-29T01:40:20;95810.50;;;15.12;55.62
58092;BME280;43896;48.178;11.578;2023-05-29T01:42:45;95830.50;;;14.63;57.64
58092;BME280;43896;48.178;11.578;2023-05-29T01:45:12;95779.19;;;14.65;56.35
58092;BME280;43896;48.178;11.578;2023-05-29T01:47:37;95765.94;;;14.65;55.91
58092;BME280;43896;48.178;11.578;2023-05-29T01:50:04;95830.94;;;15.18;55.97
58092;BME280;43896;48.178;11.578;2023-05-29T01:52:30;95826.31;;;15.06;55.39
58092;BME280;43896;48.178;11.578;2023-05-29T01:54:56;95773.97;;;14.71;56.12
58092;BME280;43896;48.178;11.578;2023-05-29T01:57:22;95823.41;;;15.00;56.45
58092;BME280;43896;48.178;11.578;2023-05-29T01:59:47;95800.06;;;14.89;57.00
58092;BME280;43896;48.178;11.578;2023-05-29T02:02:14;95828.31;;;15.04;56.33
58092;BME280;43896;48.178;11.578;2023-05-29T02:04:39;95814.28;;;14.88;56.72
58092;BME280;43896;48.178;11.578;2023-05-29T02:07:05;95837.31;;;15.03;56.99
58092;BME280;43896;48.178;11.578;2023-05-29T02:09:31;95772.25;;;14.63;57.12
58092;BME280;43896;48.178;11.578;2023-05-29T02:11:56;95833.63;;;15.04;57.22
58092;BME280;43896;48.178;11.578;2023-05-29T02:14:22;95807.38;;;14.87;57.17
58092;BME280;43896;48.178;11.578;2023-05-29T02:16:49;95823.53;;;14.77;57.87
58092;BME280;43896;48.178;11.578;2023-05-29T02:19:17;95796.34;;;14.69;57.77
58092;BME280;43896;48.178;11.578;2023-05-29T02:21:43;95795.03;;;14.79;57.32
58092;BME280;43896;48.178;11.578;2023-05-29T02:24:08;95812.84;;;14.26;58.68
58092;BME280;43896;48.178;11.578;2023-05-29T02:26:34;95833.72;;;14.51;58.37
58092;BME280;43896;48.178;11.578;2023-05-29T02:29:02;95803.41;;;14.61;57.66
58092;BME280;43896;48.178;11.578;2023-05-29T02:31:27;95834.19;;;14.54;58.21
58092;BME280;43896;48.178;11.578;2023-05-29T02:33:53;95822.00;;;14.68;57.73
58092;BME280;43896;48.178;11.578;2023-05-29T02:36:18;95822.00;;;14.68;57.83
58092;BME280;43896;48.178;11.578;2023-05-29T02:38:43;95778.47;;;14.41;57.38
58092;BME280;43896;48.178;11.578;2023-05-29T02:41:09;95789.03;;;14.41;57.77
58092;BME280;43896;48.178;11.578;2023-05-29T02:43:34;95757.56;;;14.16;57.96
58092;BME280;43896;48.178;11.578;2023-05-29T02:46:00;95812.94;;;14.48;57.80
58092;BME280;43896;48.178;11.578;2023-05-29T02:48:25;95835.50;;;14.58;58.00
58092;BME280;43896;48.178;11.578;2023-05-29T02:50:51;95819.59;;;14.43;58.05
58092;BME280;43896;48.178;11.578;2023-05-29T02:53:16;95751.72;;;14.06;58.71
58092;BME280;43896;48.178;11.578;2023-05-29T02:55:41;95792.13;;;14.30;58.18
58092;BME280;43896;48.178;11.578;2023-05-29T02:58:07;95797.16;;;14.24;58.12
58092;BME280;43896;48.178;11.578;2023-05-29T03:00:33;95783.03;;;13.64;59.60
58092;BME280;43896;48.178;11.578;2023-05-29T03:02:58;95798.00;;;13.72;60.43
58092;BME280;43896;48.178;11.578;2023-05-29T03:05:24;95820.91;;;13.25;62.32
58092;BME280;43896;48.178;11.578;2023-05-29T03:07:49;95828.28;;;13.84;60.34
58092;BME280;43896;48.178;11.578;2023-05-29T03:10:15;95765.81;;;13.68;59.36
58092;BME280;43896;48.178;11.578;2023-05-29T03:12:42;95767.22;;;13.79;58.84
58092;BME280;43896;48.178;11.578;2023-05-29T03:15:09;95843.41;;;14.29;58.95
58092;BME280;43896;48.178;11.578;2023-05-29T03:17:34;95836.75;;;14.33;58.84
58092;BME280;43896;48.178;11.578;2023-05-29T03:20:03;95812.09;;;14.17;58.84
58092;BME280;43896;48.178;11.578;2023-05-29T03:22:31;95789.66;;;13.98;59.05
58092;BME280;43896;48.178;11.578;2023-05-29T03:24:57;95816.59;;;14.17;58.79
58092;BME280;43896;48.178;11.578;2023-05-29T03:27:22;95791.31;;;13.99;58.90
58092;BME280;43896;48.178;11.578;2023-05-29T03:29:48;95840.78;;;14.29;58.79
58092;BME280;43896;48.178;11.578;2023-05-29T03:32:13;95782.25;;;13.94;58.32
58092;BME280;43896;48.178;11.578;2023-05-29T03:34:39;95769.66;;;13.81;58.50
58092;BME280;43896;48.178;11.578;2023-05-29T03:37:05;95821.13;;;14.08;59.20
58092;BME280;43896;48.178;11.578;2023-05-29T03:39:30;95839.94;;;14.28;58.92
58092;BME280;43896;48.178;11.578;2023-05-29T03:41:56;95834.09;;;14.18;58.95
58092;BME280;43896;48.178;11.578;2023-05-29T03:44:21;95849.97;;;14.33;59.14
58092;BME280;43896;48.178;11.578;2023-05-29T03:46:46;95794.31;;;13.96;58.30
58092;BME280;43896;48.178;11.578;2023-05-29T03:49:12;95852.53;;;14.26;58.77
58092;BME280;43896;48.178;11.578;2023-05-29T03:51:37;95861.38;;;14.18;58.74
58092;BME280;43896;48.178;11.578;2023-05-29T03:54:03;95808.97;;;13.99;58.64
58092;BME280;43896;48.178;11.578;2023-05-29T03:56:28;95855.63;;;14.30;58.85
58092;BME280;43896;48.178;11.578;2023-05-29T03:58:54;95844.06;;;14.31;58.85
58092;BME280;43896;48.178;11.578;2023-05-29T04:01:19;95860.28;;;14.28;58.54
58092;BME280;43896;48.178;11.578;2023-05-29T04:03:45;95807.63;;;14.03;58.64
58092;BME280;43896;48.178;11.578;2023-05-29T04:06:11;95858.56;;;14.35;58.99
58092;BME280;43896;48.178;11.578;2023-05-29T04:08:36;95833.44;;;14.16;58.98
58092;BME280;43896;48.178;11.578;2023-05-29T04:11:02;95852.41;;;14.19;59.09
58092;BME280;43896;48.178;11.578;2023-05-29T04:13:28;95846.84;;;14.14;58.84
58092;BME280;43896;48.178;11.578;2023-05-29T04:15:54;95815.56;;;14.03;59.04
58092;BME280;43896;48.178;11.578;2023-05-29T04:18:20;95806.16;;;14.00;58.97
58092;BME280;43896;48.178;11.578;2023-05-29T04:20:45;95854.91;;;14.36;59.06
58092;BME280;43896;48.178;11.578;2023-05-29T04:23:12;95867.22;;;14.43;58.52
58092;BME280;43896;48.178;11.578;2023-05-29T04:25:38;95868.84;;;14.30;58.58
58092;BME280;43896;48.178;11.578;2023-05-29T04:28:03;95858.25;;;14.15;59.01
58092;BME280;43896;48.178;11.578;2023-05-29T04:30:29;95880.72;;;13.96;59.52
58092;BME280;43896;48.178;11.578;2023-05-29T04:32:55;95851.91;;;13.86;59.67
58092;BME280;43896;48.178;11.578;2023-05-29T04:35:21;95867.34;;;13.51;60.86
58092;BME280;43896;48.178;11.578;2023-05-29T04:37:47;95887.97;;;13.56;60.63
58092;BME280;43896;48.178;11.578;2023-05-29T04:40:12;95891.28;;;13.81;60.59
58092;BME280;43896;48.178;11.578;2023-05-29T04:42:42;95900.28;;;13.40;61.67
58092;BME280;43896;48.178;11.578;2023-05-29T04:45:09;95880.16;;;13.31;61.50
58092;BME280;43896;48.178;11.578;2023-05-29T04:47:36;95900.13;;;13.88;59.90
58092;BME280;43896;48.178;11.578;2023-05-29T04:50:12;95893.34;;;13.85;60.49
58092;BME280;43896;48.178;11.578;2023-05-29T04:52:38;95899.16;;;14.27;59.16
58092;BME280;43896;48.178;11.578;2023-05-29T04:55:04;95891.47;;;14.17;59.18
58092;BME280;43896;48.178;11.578;2023-05-29T04:57:29;95897.84;;;14.08;58.88
58092;BME280;43896;48.178;11.578;2023-05-29T04:59:55;95899.88;;;14.36;58.05
58092;BME280;43896;48.178;11.578;2023-05-29T05:02:20;95894.28;;;14.16;57.75
58092;BME280;43896;48.178;11.578;2023-05-29T05:04:46;95901.41;;;13.92;59.29
58092;BME280;43896;48.178;11.578;2023-05-29T05:07:12;95904.41;;;14.80;58.02
58092;BME280;43896;48.178;11.578;2023-05-29T05:09:38;95895.94;;;14.32;58.05
58092;BME280;43896;48.178;11.578;2023-05-29T05:12:03;95882.66;;;14.02;59.58
58092;BME280;43896;48.178;11.578;2023-05-29T05:14:28;95887.19;;;14.31;58.77
58092;BME280;43896;48.178;11.578;2023-05-29T05:16:54;95887.34;;;14.68;57.91
58092;BME280;43896;48.178;11.578;2023-05-29T05:19:19;95885.75;;;14.43;57.73
58092;BME280;43896;48.178;11.578;2023-05-29T05:21:45;95903.81;;;14.40;58.37
58092;BME280;43896;48.178;11.578;2023-05-29T05:24:10;95902.66;;;14.19;58.85
58092;BME280;43896;48.178;11.578;2023-05-29T05:26:35;95890.06;;;14.06;59.25
58092;BME280;43896;48.178;11.578;2023-05-29T05:29:00;95903.97;;;14.61;58.32
58092;BME280;43896;48.178;11.578;2023-05-29T05:31:26;95882.56;;;14.48;58.16
58092;BME280;43896;48.178;11.578;2023-05-29T05:33:51;95914.56;;;14.61;58.71
58092;BME280;43896;48.178;11.578;2023-05-29T05:36:17;95910.38;;;14.82;57.51
58092;BME280;43896;48.178;11.578;2023-05-29T05:38:42;95897.91;;;14.53;59.01
58092;BME280;43896;48.178;11.578;2023-05-29T05:41:07;95900.72;;;15.26;57.39
58092;BME280;43896;48.178;11.578;2023-05-29T05:43:33;95913.94;;;15.41;56.69
58092;BME280;43896;48.178;11.578;2023-05-29T05:45:58;95902.53;;;15.77;56.71
58092;BME280;43896;48.178;11.578;2023-05-29T05:48:23;95902.59;;;15.47;56.65
58092;BME280;43896;48.178;11.578;2023-05-29T05:50:48;95924.66;;;15.17;57.32
58092;BME280;43896;48.178;11.578;2023-05-29T05:53:14;95926.06;;;15.13;57.29
58092;BME280;43896;48.178;11.578;2023-05-29T05:55:39;95904.72;;;15.36;56.92
58092;BME280;43896;48.178;11.578;2023-05-29T05:58:04;95925.28;;;15.34;57.19
58092;BME280;43896;48.178;11.578;2023-05-29T06:00:30;95914.91;;;15.54;56.55
58092;BME280;43896;48.178;11.578;2023-05-29T06:02:55;95913.44;;;15.52;56.08
58092;BME280;43896;48.178;11.578;2023-05-29T06:05:21;95929.13;;;15.68;56.58
58092;BME280;43896;48.178;11.578;2023-05-29T06:07:46;95931.34;;;15.65;56.31
58092;BME280;43896;48.178;11.578;2023-05-29T06:10:11;95919.72;;;16.02;55.31
58092;BME280;43896;48.178;11.578;2023-05-29T06:12:37;95916.44;;;15.64;56.20
58092;BME280;43896;48.178;11.578;2023-05-29T06:15:02;95937.47;;;15.65;56.27
58092;BME280;43896;48.178;11.578;2023-05-29T06:17:29;95924.72;;;15.90;55.22
58092;BME280;43896;48.178;11.578;2023-05-29T06:19:54;95914.16;;;15.75;56.25
58092;BME280;43896;48.178;11.578;2023-05-29T06:22:20;95923.13;;;15.96;55.50
58092;BME280;43896;48.178;11.578;2023-05-29T06:24:45;95926.66;;;15.67;55.54
58092;BME280;43896;48.178;11.578;2023-05-29T06:27:11;95931.25;;;15.73;55.85
58092;BME280;43896;48.178;11.578;2023-05-29T06:29:36;95936.31;;;15.74;56.01
58092;BME280;43896;48.178;11.578;2023-05-29T06:32:01;95926.84;;;16.23;54.91
58092;BME280;43896;48.178;11.578;2023-05-29T06:34:27;95919.97;;;16.07;55.39
58092;BME280;43896;48.178;11.578;2023-05-29T06:36:52;95927.53;;;16.32;54.46
58092;BME280;43896;48.178;11.578;2023-05-29T06:39:17;95921.84;;;16.92;53.68
58092;BME280;43896;48.178;11.578;2023-05-29T06:41:45;95921.53;;;16.52;54.45
58092;BME280;43896;48.178;11.578;2023-05-29T06:44:11;95939.47;;;16.71;54.62
58092;BME280;43896;48.178;11.578;2023-05-29T06:46:36;95927.16;;;16.92;53.62
58092;BME280;43896;48.178;11.578;2023-05-29T06:49:01;95941.41;;;17.25;52.96
58092;BME280;43896;48.178;11.578;2023-05-29T06:51:26;95945.56;;;17.00;53.31
58092;BME280;43896;48.178;11.578;2023-05-29T06:53:52;95930.94;;;16.82;53.53
58092;BME280;43896;48.178;11.578;2023-05-29T06:56:17;95951.19;;;16.83;53.84
58092;BME280;43896;48.178;11.578;2023-05-29T06:58:42;95922.66;;;16.92;52.36
58092;BME280;43896;48.178;11.578;2023-05-29T07:01:08;95951.56;;;16.80;53.17
58092;BME280;43896;48.178;11.578;2023-05-29T07:03:33;95950.59;;;17.16;53.61
58092;BME280;43896;48.178;11.578;2023-05-29T07:05:58;95933.41;;;17.19;53.16
58092;BME280;43896;48.178;11.578;2023-05-29T07:08:24;95939.03;;;16.96;53.89
58092;BME280;43896;48.178;11.578;2023-05-29T07:10:50;95938.22;;;16.95;54.11
58092;BME280;43896;48.178;11.578;2023-05-29T07:13:16;95944.47;;;17.22;53.60
58092;BME280;43896;48.178;11.578;2023-05-29T07:15:43;95941.56;;;17.17;53.83
58092;BME280;43896;48.178;11.578;2023-05-29T07:18:09;95952.63;;;17.14;54.09
58092;BME280;43896;48.178;11.578;2023-05-29T07:20:36;95957.72;;;17.57;53.27
58092;BME280;43896;48.178;11.578;2023-05-29T07:23:01;95946.00;;;18.07;53.56
58092;BME280;43896;48.178;11.578;2023-05-29T07:25:27;95945.22;;;18.33;53.94
58092;BME280;43896;48.178;11.578;2023-05-29T07:27:52;95964.28;;;18.43;52.49
58092;BME280;43896;48.178;11.578;2023-05-29T07:30:18;95951.66;;;17.84;53.18
58092;BME280;43896;48.178;11.578;2023-05-29T07:32:43;95967.88;;;17.95;52.13
58092;BME280;43896;48.178;11.578;2023-05-29T07:35:09;95971.00;;;18.19;53.15
58092;BME280;43896;48.178;11.578;2023-05-29T07:37:34;95957.09;;;18.30;52.04
58092;BME280;43896;48.178;11.578;2023-05-29T07:40:00;95949.31;;;18.55;52.44
58092;BME280;43896;48.178;11.578;2023-05-29T07:42:26;95971.88;;;18.93;52.06
58092;BME280;43896;48.178;11.578;2023-05-29T07:44:51;95962.03;;;18.60;51.25
58092;BME280;43896;48.178;11.578;2023-05-29T07:47:17;95965.09;;;18.64;51.39
58092;BME280;43896;48.178;11.578;2023-05-29T07:49:42;95972.25;;;18.70;50.37
58092;BME280;43896;48.178;11.578;2023-05-29T07:52:07;95973.47;;;19.07;49.87
58092;BME280;43896;48.178;11.578;2023-05-29T07:54:33;95957.06;;;18.77;50.25
58092;BME280;43896;48.178;11.578;2023-05-29T07:56:59;95937.41;;;18.78;51.91
58092;BME280;43896;48.178;11.578;2023-05-29T07:59:25;95979.38;;;19.29;49.01
58092;BME280;43896;48.178;11.578;2023-05-29T08:01:51;95967.66;;;19.30;50.94
58092;BME280;43896;48.178;11.578;2023-05-29T08:04:16;95918.56;;;18.80;49.60
58092;BME280;43896;48.178;11.578;2023-05-29T08:06:42;95982.31;;;19.66;49.03
58092;BME280;43896;48.178;11.578;2023-05-29T08:09:09;95976.13;;;19.14;48.71
58092;BME280;43896;48.178;11.578;2023-05-29T08:11:36;95966.25;;;19.28;48.94
58092;BME280;43896;48.178;11.578;2023-05-29T08:14:01;95964.75;;;19.45;48.76
58092;BME280;43896;48.178;11.578;2023-05-29T08:16:27;95968.38;;;19.64;49.99
58092;BME280;43896;48.178;11.578;2023-05-29T08:18:53;95985.44;;;19.63;48.27
58092;BME280;43896;48.178;11.578;2023-05-29T08:21:18;95971.63;;;19.66;49.75
58092;BME280;43896;48.178;11.578;2023-05-29T08:23:44;95936.13;;;19.66;49.04
58092;BME280;43896;48.178;11.578;2023-05-29T08:26:09;95947.53;;;19.93;48.41
58092;BME280;43896;48.178;11.578;2023-05-29T08:28:34;95954.72;;;19.93;47.53
58092;BME280;43896;48.178;11.578;2023-05-29T08:31:00;95972.28;;;20.07;50.18
58092;BME280;43896;48.178;11.578;2023-05-29T08:33:25;95941.63;;;19.84;47.40
58092;BME280;43896;48.178;11.578;2023-05-29T08:35:50;95976.25;;;20.30;46.62
58092;BME280;43896;48.178;11.578;2023-05-29T08:38:16;95922.22;;;20.02;47.20
58092;BME280;43896;48.178;11.578;2023-05-29T08:40:41;95972.44;;;20.19;49.24
58092;BME280;43896;48.178;11.578;2023-05-29T08:45:43;95927.38;;;20.29;47.41
58092;BME280;43896;48.178;11.578;2023-05-29T08:48:10;95967.91;;;20.51;49.59
58092;BME280;43896;48.178;11.578;2023-05-29T08:50:40;95956.13;;;20.84;48.55
58092;BME280;43896;48.178;11.578;2023-05-29T08:53:07;95940.28;;;21.08;46.82
58092;BME280;43896;48.178;11.578;2023-05-29T08:55:33;95952.19;;;21.30;48.08
58092;BME280;43896;48.178;11.578;2023-05-29T08:57:59;95957.94;;;21.52;48.29
58092;BME280;43896;48.178;11.578;2023-05-29T09:00:24;95936.25;;;21.54;47.42
58092;BME280;43896;48.178;11.578;2023-05-29T09:02:54;95960.31;;;21.91;46.16
58092;BME280;43896;48.178;11.578;2023-05-29T09:05:20;95958.66;;;21.90;46.81
58092;BME280;43896;48.178;11.578;2023-05-29T09:07:46;95975.06;;;22.12;45.62
58092;BME280;43896;48.178;11.578;2023-05-29T09:10:14;95976.69;;;22.13;45.62
58092;BME280;43896;48.178;11.578;2023-05-29T09:12:40;95966.84;;;21.95;46.84
58092;BME280;43896;48.178;11.578;2023-05-29T09:15:20;95974.38;;;22.17;45.14
58092;BME280;43896;48.178;11.578;2023-05-29T09:17:52;95943.09;;;21.68;42.62
58092;BME280;43896;48.178;11.578;2023-05-29T09:20:19;95967.03;;;21.82;43.42
58092;BME280;43896;48.178;11.578;2023-05-29T09:22:57;95972.53;;;22.47;43.41
58092;BME280;43896;48.178;11.578;2023-05-29T09:25:25;95970.13;;;22.81;42.68
58092;BME280;43896;48.178;11.578;2023-05-29T09:28:01;95971.06;;;22.99;41.61
58092;BME280;43896;48.178;11.578;2023-05-29T09:33:01;95967.28;;;22.53;42.44
58092;BME280;43896;48.178;11.578;2023-05-29T09:35:40;95966.25;;;22.23;41.89
58092;BME280;43896;48.178;11.578;2023-05-29T09:38:07;95968.44;;;22.57;41.62
58092;BME280;43896;48.178;11.578;2023-05-29T09:40:35;95971.97;;;22.93;40.40
58092;BME280;43896;48.178;11.578;2023-05-29T09:43:04;95967.91;;;23.26;40.43
58092;BME280;43896;48.178;11.578;2023-05-29T09:45:30;95969.19;;;23.35;37.61
58092;BME280;43896;48.178;11.578;2023-05-29T09:47:56;95934.06;;;22.12;38.61
58092;BME280;43896;48.178;11.578;2023-05-29T09:50:25;95946.88;;;22.52;39.65
58092;BME280;43896;48.178;11.578;2023-05-29T09:52:50;95972.13;;;23.21;40.90
58092;BME280;43896;48.178;11.578;2023-05-29T09:55:20;95985.03;;;22.89;37.39
58092;BME280;43896;48.178;11.578;2023-05-29T09:57:46;95957.19;;;22.78;36.78
58092;BME280;43896;48.178;11.578;2023-05-29T10:00:14;95971.75;;;22.82;37.02
58092;BME280;43896;48.178;11.578;2023-05-29T10:02:40;95963.81;;;22.88;36.14
58092;BME280;43896;48.178;11.578;2023-05-29T10:05:08;95981.22;;;23.20;36.42
58092;BME280;43896;48.178;11.578;2023-05-29T10:07:36;95965.69;;;22.99;37.21
58092;BME280;43896;48.178;11.578;2023-05-29T10:10:05;95953.22;;;23.28;35.73
58092;BME280;43896;48.178;11.578;2023-05-29T10:12:35;95980.59;;;23.66;36.32
58092;BME280;43896;48.178;11.578;2023-05-29T10:15:02;95971.06;;;23.34;37.13
58092;BME280;43896;48.178;11.578;2023-05-29T10:17:33;95929.66;;;23.71;36.39
58092;BME280;43896;48.178;11.578;2023-05-29T10:20:01;95921.94;;;23.74;38.10
58092;BME280;43896;48.178;11.578;2023-05-29T10:22:30;95948.78;;;23.34;37.60
58092;BME280;43896;48.178;11.578;2023-05-29T10:24:57;95925.84;;;23.55;36.07
58092;BME280;43896;48.178;11.578;2023-05-29T10:27:23;95952.28;;;23.75;33.64
58092;BME280;43896;48.178;11.578;2023-05-29T10:30:12;95957.47;;;23.53;33.32
58092;BME280;43896;48.178;11.578;2023-05-29T10:35:45;95965.47;;;23.88;36.34
58092;BME280;43896;48.178;11.578;2023-05-29T10:38:14;95957.88;;;23.33;36.66
58092;BME280;43896;48.178;11.578;2023-05-29T10:40:42;95967.94;;;23.78;36.57
58092;BME280;43896;48.178;11.578;2023-05-29T10:43:08;95975.44;;;23.64;36.59
58092;BME280;43896;48.178;11.578;2023-05-29T10:50:40;95955.56;;;24.34;35.58
58092;BME280;43896;48.178;11.578;2023-05-29T10:53:07;95928.53;;;24.24;36.13
58092;BME280;43896;48.178;11.578;2023-05-29T10:55:36;95945.38;;;24.37;33.51
58092;BME280;43896;48.178;11.578;2023-05-29T10:58:10;95886.28;;;23.91;34.32
58092;BME280;43896;48.178;11.578;2023-05-29T11:00:42;95924.63;;;23.74;32.44
58092;BME280;43896;48.178;11.578;2023-05-29T11:03:08;95919.25;;;23.74;34.01
58092;BME280;43896;48.178;11.578;2023-05-29T11:05:34;95939.03;;;23.97;34.26
58092;BME280;43896;48.178;11.578;2023-05-29T11:08:00;95955.44;;;24.12;34.39
58092;BME280;43896;48.178;11.578;2023-05-29T11:13:37;95947.56;;;24.23;32.42
58092;BME280;43896;48.178;11.578;2023-05-29T11:18:55;95939.81;;;24.55;33.89
58092;BME280;43896;48.178;11.578;2023-05-29T11:23:51;95914.16;;;24.02;33.21
58092;BME280;43896;48.178;11.578;2023-05-29T11:26:19;95915.81;;;24.20;34.35
58092;BME280;43896;48.178;11.578;2023-05-29T11:28:45;95955.56;;;24.34;33.19
58092;BME280;43896;48.178;11.578;2023-05-29T11:31:12;95935.66;;;24.81;31.64
58092;BME280;43896;48.178;11.578;2023-05-29T11:33:40;95917.31;;;24.78;33.80
58092;BME280;43896;48.178;11.578;2023-05-29T11:36:09;95937.16;;;25.11;33.81
58092;BME280;43896;48.178;11.578;2023-05-29T11:38:36;95912.41;;;24.92;32.53
58092;BME280;43896;48.178;11.578;2023-05-29T11:41:01;95875.09;;;24.28;33.00
58092;BME280;43896;48.178;11.578;2023-05-29T11:43:27;95914.63;;;24.61;31.50
58092;BME280;43896;48.178;11.578;2023-05-29T11:45:52;95933.34;;;25.07;31.61
58092;BME280;43896;48.178;11.578;2023-05-29T11:48:17;95915.19;;;24.80;31.70
58092;BME280;43896;48.178;11.578;2023-05-29T11:50:43;95921.03;;;24.94;31.12
58092;BME280;43896;48.178;11.578;2023-05-29T11:53:11;95946.94;;;25.34;31.56
58092;BME280;43896;48.178;11.578;2023-05-29T11:55:36;95919.66;;;25.53;32.17
58092;BME280;43896;48.178;11.578;2023-05-29T11:58:03;95948.00;;;24.99;31.92
58092;BME280;43896;48.178;11.578;2023-05-29T12:00:33;95931.59;;;25.18;32.45
58092;BME280;43896;48.178;11.578;2023-05-29T12:02:59;95942.16;;;24.85;31.56
58092;BME280;43896;48.178;11.578;2023-05-29T12:05:52;95936.69;;;24.63;32.90
58092;BME280;43896;48.178;11.578;2023-05-29T12:08:24;95944.03;;;24.68;33.41
58092;BME280;43896;48.178;11.578;2023-05-29T12:10:52;95952.75;;;24.75;32.79
58092;BME280;43896;48.178;11.578;2023-05-29T12:13:21;95916.50;;;24.61;31.02
58092;BME280;43896;48.178;11.578;2023-05-29T12:15:48;95940.94;;;24.59;32.30
58092;BME280;43896;48.178;11.578;2023-05-29T12:18:14;95923.69;;;24.55;31.98
58092;BME280;43896;48.178;11.578;2023-05-29T12:20:40;95939.91;;;24.60;31.69
58092;BME280;43896;48.178;11.578;2023-05-29T12:23:06;95936.06;;;24.73;31.79
58092;BME280;43896;48.178;11.578;2023-05-29T12:25:34;95943.41;;;24.32;32.41
58092;BME280;43896;48.178;11.578;2023-05-29T12:28:02;95946.22;;;24.08;32.68
58092;BME280;43896;48.178;11.578;2023-05-29T12:30:27;95935.19;;;24.22;33.51
58092;BME280;43896;48.178;11.578;2023-05-29T12:32:53;95944.34;;;24.55;32.35
58092;BME280;43896;48.178;11.578;2023-05-29T12:35:25;95913.00;;;24.60;33.67
58092;BME280;43896;48.178;11.578;2023-05-29T12:38:04;95923.34;;;24.68;33.13
58092;BME280;43896;48.178;11.578;2023-05-29T12:40:33;95935.53;;;24.42;33.32
58092;BME280;43896;48.178;11.578;2023-05-29T12:43:08;95931.63;;;24.84;33.00
58092;BME280;43896;48.178;11.578;2023-05-29T12:45:36;95936.00;;;25.24;33.06
58092;BME280;43896;48.178;11.578;2023-05-29T12:48:06;95938.22;;;25.49;34.14
58092;BME280;43896;48.178;11.578;2023-05-29T12:50:34;95943.09;;;25.52;33.17
58092;BME280;43896;48.178;11.578;2023-05-29T12:53:10;95933.00;;;25.42;30.98
58092;BME280;43896;48.178;11.578;2023-05-29T12:55:39;95938.28;;;25.98;31.30
58092;BME280;43896;48.178;11.578;2023-05-29T12:58:08;95943.41;;;26.00;31.33
58092;BME280;43896;48.178;11.578;2023-05-29T13:00:35;95934.03;;;25.36;30.42
58092;BME280;43896;48.178;11.578;2023-05-29T13:03:01;95934.84;;;25.20;31.66
58092;BME280;43896;48.178;11.578;2023-05-29T13:05:27;95925.94;;;25.36;30.91
58092;BME280;43896;48.178;11.578;2023-05-29T13:07:53;95917.69;;;25.65;31.52
58092;BME280;43896;48.178;11.578;2023-05-29T13:10:19;95933.44;;;25.56;31.38
58092;BME280;43896;48.178;11.578;2023-05-29T13:12:45;95918.13;;;25.18;31.51
58092;BME280;43896;48.178;11.578;2023-05-29T13:15:12;95927.25;;;25.34;31.04